Trapani, Italy

2:46 AM CET on March 28, 2015 (GMT +0100)
Punta Raisi | | Change Station
CLOSE
Current Station
Airport
Location: Palermo,
Elevation: 112 ft
Nearby Weather Stations
Active Advisory: Thunderstorms

Elev 112 ft 38.18 °N, 13.10 °E | Updated 26 minutes ago

Scattered Clouds
Scattered Clouds
57 °F
Feels Like 57 °F
N
18
Wind Variable Wind from NW

Today
High -- | Low -- °F
--% Chance of Precip.
Yesterday
High -- | Low -- °F
Precip. -- in
6:02 AM 6:28 PM
First Quarter, 57% visible
Pressure 29.71 in
Visibility 6.2 miles
Clouds Scattered Clouds 2000 ft
Scattered Clouds 4500 ft
Dew Point 54 °F
Humidity 88%
Rainfall 0.00 in
Snow Depth Not available.
UV 0 out of 12
Pollen Not available.
Air Quality Not available.
Flu Activity Not available.
METAR LICJ 280120Z 32016KT 9999 SCT020 SCT045 14/12 Q1006

More Conditions Fewer Conditions

Pressure 29.71 in
Visibility 6.2 miles
Clouds Scattered Clouds 2000 ft
Scattered Clouds 4500 ft
Dew Point 54 °F
Humidity 88%
Rainfall 0.00 in
Snow Depth Not available.
UV 0 out of 12
Pollen Not available.
Air Quality Not available.
Flu Activity Not available.
METAR LICJ 280120Z 32016KT 9999 SCT020 SCT045 14/12 Q1006

More Conditions Fewer Conditions

10-Day Weather Forecast

Almanac

Astronomy

Mar. 28, 2015 Rise Set
Actual Time
Civil Twilight
Nautical Twilight
Astronomical Twilight
Moon
Length of Visible Light
Length of Day
Tomorrow will be .
, % of the Moon is Illuminated

Today's Extremes

Country Highs Country Lows

Community

WunderPhotos

Upload Photos

1,808,911 photos uploaded!

WunderBlogs® & News

Nearby

Air Quality

  Air Quality AQ Index Pollutant
Not available.

Snow Depth

Station Depth Elevation

Earthquake Activity

City Distance Mag. Time & Date
Minimum magnitude displayed is 2.5.

Coastal Water Temperatures

Place Temperature

Stations

Nearby Weather Stations

Station Location Temp. Windchill Dew Point Humidity Wind Precip. Elev Updated Type